createdAt,value
2023-08-17T00:00:25.017Z,99994.13
2023-08-17T00:02:51.527Z,99988.66
2023-08-17T00:05:18.373Z,99988.44
2023-08-17T00:07:44.959Z,99988.44
2023-08-17T00:10:11.459Z,99978.78
2023-08-17T00:12:37.966Z,99985.50
2023-08-17T00:15:04.957Z,99982.38
2023-08-17T00:17:31.705Z,99985.94
2023-08-17T00:19:58.246Z,99982.38
2023-08-17T00:22:25.164Z,99977.97
2023-08-17T00:24:51.612Z,99980.13
2023-08-17T00:27:18.116Z,99978.44
2023-08-17T00:29:44.697Z,99966.44
2023-08-17T00:32:11.185Z,99964.66
2023-08-17T00:34:37.649Z,99977.22
2023-08-17T00:37:04.409Z,99972.59
2023-08-17T00:39:30.953Z,99958.34
2023-08-17T00:41:57.490Z,99953.72
2023-08-17T00:44:24.176Z,99969.50
2023-08-17T00:46:50.692Z,99964.41
2023-08-17T00:49:17.238Z,99958.47
2023-08-17T00:51:44.003Z,99965.00
2023-08-17T00:54:11.471Z,99980.25
2023-08-17T00:56:38.320Z,99975.00
2023-08-17T00:59:05.519Z,99970.56
2023-08-17T01:01:32.179Z,99979.94
2023-08-17T01:03:58.791Z,99986.03
2023-08-17T01:06:25.318Z,99974.56
2023-08-17T01:08:51.810Z,99988.00
2023-08-17T01:11:25.739Z,99989.06
2023-08-17T01:13:58.222Z,99990.59
2023-08-17T01:16:30.688Z,99991.22
2023-08-17T01:18:59.713Z,99995.44
2023-08-17T01:21:36.511Z,99992.81
2023-08-17T01:24:04.986Z,99990.16
2023-08-17T01:26:31.545Z,99994.69
2023-08-17T01:28:58.038Z,99985.53
2023-08-17T01:31:29.138Z,99993.50
2023-08-17T01:34:00.414Z,99990.97
2023-08-17T01:36:31.359Z,99991.81
2023-08-17T01:38:58.792Z,99997.28
2023-08-17T01:41:27.152Z,99989.09
2023-08-17T01:43:54.987Z,99973.50
2023-08-17T01:46:22.395Z,99987.91
2023-08-17T01:48:48.865Z,99978.88
2023-08-17T01:51:22.895Z,99973.00
2023-08-17T01:53:50.111Z,99980.16
2023-08-17T01:56:16.658Z,99973.63
2023-08-17T01:58:43.263Z,99980.38
2023-08-17T02:01:09.876Z,99978.47
2023-08-17T02:03:36.447Z,99975.16
2023-08-17T02:06:03.064Z,99979.56
2023-08-17T02:08:30.356Z,99978.47
2023-08-17T02:10:56.909Z,99982.22
2023-08-17T02:13:23.420Z,99990.97
2023-08-17T02:15:50.061Z,99979.31
2023-08-17T02:18:16.625Z,99986.00
2023-08-17T02:20:43.231Z,99962.34
2023-08-17T02:23:09.969Z,99988.66
2023-08-17T02:25:39.900Z,99984.59
2023-08-17T02:28:06.831Z,99980.38
2023-08-17T02:30:34.114Z,99980.88
2023-08-17T02:33:00.745Z,99990.28
2023-08-17T02:35:27.289Z,99990.03
2023-08-17T02:37:53.853Z,99987.47
2023-08-17T02:40:20.469Z,99987.69
2023-08-17T02:42:47.173Z,99975.47
2023-08-17T02:45:13.683Z,99974.03
2023-08-17T02:47:40.236Z,99978.16
2023-08-17T02:50:07.238Z,99979.78
2023-08-17T02:52:33.851Z,99977.31
2023-08-17T02:55:00.590Z,99979.22
2023-08-17T02:57:27.273Z,99968.94
2023-08-17T02:59:54.051Z,99970.75
2023-08-17T03:02:20.653Z,99974.94
2023-08-17T03:04:47.232Z,99975.00
2023-08-17T03:07:13.770Z,99973.75
2023-08-17T03:09:40.343Z,99972.81
2023-08-17T03:12:07.146Z,99968.88
2023-08-17T03:14:34.231Z,99978.06
2023-08-17T03:17:00.793Z,99970.19
2023-08-17T03:19:27.309Z,99980.19
2023-08-17T03:21:53.818Z,99980.31
2023-08-17T03:24:20.338Z,99977.81
2023-08-17T03:26:46.824Z,99976.75
2023-08-17T03:29:13.347Z,99976.97
2023-08-17T03:31:39.945Z,99974.50
2023-08-17T03:34:06.432Z,99967.34
2023-08-17T03:36:32.915Z,99968.41
2023-08-17T03:38:59.454Z,99956.59
2023-08-17T03:41:25.986Z,99967.22
2023-08-17T03:43:52.539Z,99975.78
2023-08-17T03:46:19.094Z,99972.81
2023-08-17T03:48:46.102Z,99967.22
2023-08-17T03:51:12.719Z,99962.34
2023-08-17T03:53:39.293Z,99965.56
2023-08-17T03:56:05.845Z,99972.69
2023-08-17T03:58:35.929Z,99970.53
2023-08-17T04:01:04.392Z,99972.03
2023-08-17T04:03:31.079Z,99972.03
2023-08-17T04:05:57.586Z,99968.28
2023-08-17T04:08:24.205Z,99977.50
2023-08-17T04:10:50.743Z,99976.69
2023-08-17T04:13:17.267Z,99979.41
2023-08-17T04:15:43.793Z,99982.38
2023-08-17T04:18:10.389Z,99975.09
2023-08-17T04:20:36.902Z,99981.41
2023-08-17T04:23:03.620Z,99980.56
2023-08-17T04:25:30.252Z,99992.69
2023-08-17T04:27:56.761Z,99981.41
2023-08-17T04:30:23.248Z,99972.59
2023-08-17T04:32:53.577Z,99976.84
2023-08-17T04:35:21.315Z,99979.94
2023-08-17T04:37:48.409Z,99987.31
2023-08-17T04:40:15.482Z,99982.94
2023-08-17T04:42:42.221Z,99977.09
2023-08-17T04:45:09.367Z,99978.31
2023-08-17T04:47:35.945Z,99985.78
2023-08-17T04:50:02.436Z,99983.91
2023-08-17T04:52:28.952Z,99979.09
2023-08-17T04:54:55.489Z,99987.69
2023-08-17T04:57:21.967Z,99995.41
2023-08-17T04:59:48.489Z,99992.44
2023-08-17T05:02:15.032Z,99995.13
2023-08-17T05:04:41.493Z,99991.56
2023-08-17T05:07:08.050Z,99995.88
2023-08-17T05:09:34.622Z,99987.06
2023-08-17T05:12:01.259Z,99983.28
2023-08-17T05:14:27.882Z,99992.44
2023-08-17T05:16:54.377Z,99999.47
2023-08-17T05:19:20.908Z,99975.50
2023-08-17T05:21:47.671Z,99976.69
2023-08-17T05:24:14.205Z,99988.56
2023-08-17T05:26:40.678Z,99984.94
2023-08-17T05:29:07.172Z,99981.59
2023-08-17T05:31:33.720Z,99988.63
2023-08-17T05:34:00.419Z,99987.06
2023-08-17T05:36:27.326Z,99981.72
2023-08-17T05:41:20.264Z,99986.63
2023-08-17T05:43:46.850Z,99978.66
2023-08-17T05:46:13.505Z,99990.31
2023-08-17T05:48:40.616Z,99983.31
2023-08-17T05:51:07.149Z,99986.44
2023-08-17T05:53:33.910Z,99990.13
2023-08-17T05:56:00.447Z,99980.38
2023-08-17T05:58:26.930Z,99986.44
2023-08-17T06:00:53.490Z,99979.41
2023-08-17T06:03:20.033Z,99991.69
2023-08-17T06:05:46.624Z,99984.19
2023-08-17T06:08:13.164Z,99982.63
2023-08-17T06:10:39.728Z,99980.59
2023-08-17T06:13:06.200Z,99976.56
2023-08-17T06:15:32.725Z,99984.38
2023-08-17T06:17:59.259Z,99974.41
2023-08-17T06:20:25.880Z,99971.53
2023-08-17T06:22:52.823Z,99967.00
2023-08-17T06:25:19.391Z,99966.72
2023-08-17T06:27:46.107Z,99960.91
2023-08-17T06:30:13.470Z,99933.19
2023-08-17T06:32:40.107Z,99965.63
2023-08-17T06:35:07.575Z,99978.94
2023-08-17T06:37:34.241Z,99953.78
2023-08-17T06:40:00.762Z,99950.91
2023-08-17T06:42:27.554Z,99957.31
2023-08-17T06:44:54.030Z,99943.63
2023-08-17T06:47:20.537Z,99953.13
2023-08-17T06:49:47.061Z,99960.34
2023-08-17T06:52:13.725Z,99946.97
2023-08-17T06:54:41.066Z,99954.47
2023-08-17T06:57:07.531Z,99956.50
2023-08-17T06:59:36.929Z,99945.53
2023-08-17T07:02:03.571Z,99947.28
2023-08-17T07:04:30.769Z,99959.31
2023-08-17T07:06:57.327Z,99959.16
2023-08-17T07:09:23.915Z,99970.81
2023-08-17T07:11:51.041Z,99970.31
2023-08-17T07:14:17.640Z,99984.69
2023-08-17T07:16:44.155Z,99972.91
2023-08-17T07:19:11.434Z,99976.53
2023-08-17T07:21:37.819Z,99975.31
2023-08-17T07:24:15.315Z,99977.28
2023-08-17T07:26:42.168Z,99969.47
2023-08-17T07:29:08.933Z,99971.91
2023-08-17T07:31:38.560Z,99966.16
2023-08-17T07:34:06.833Z,99966.00
2023-08-17T07:36:34.600Z,99972.38
2023-08-17T07:39:01.360Z,99973.81
2023-08-17T07:41:28.609Z,99973.28
2023-08-17T07:43:55.436Z,99978.78
2023-08-17T07:46:22.026Z,99979.88
2023-08-17T07:48:48.938Z,99971.06
2023-08-17T07:51:15.912Z,99971.47
2023-08-17T07:53:42.885Z,99976.44
2023-08-17T07:56:09.611Z,99980.59
2023-08-17T07:58:36.269Z,99980.66
2023-08-17T08:01:04.402Z,99982.34
2023-08-17T08:03:32.176Z,99984.91
2023-08-17T08:05:58.832Z,99980.28
2023-08-17T08:08:25.723Z,99985.03
2023-08-17T08:10:54.508Z,99983.50
2023-08-17T08:13:21.179Z,99982.16
2023-08-17T08:15:47.784Z,99973.91
2023-08-17T08:18:14.676Z,99975.34
2023-08-17T08:20:41.344Z,99976.50
2023-08-17T08:23:08.342Z,99977.13
2023-08-17T08:25:34.930Z,99971.09
2023-08-17T08:28:01.849Z,99965.88
2023-08-17T08:30:28.508Z,99980.50
2023-08-17T08:32:58.692Z,99989.41
2023-08-17T08:35:25.920Z,99986.16
2023-08-17T08:37:52.469Z,99986.19
2023-08-17T08:40:19.644Z,99980.16
2023-08-17T08:42:46.571Z,99979.13
2023-08-17T08:45:13.277Z,99974.34
2023-08-17T08:47:42.996Z,99967.81
2023-08-17T08:50:12.256Z,99976.75
2023-08-17T08:52:46.205Z,99957.28
2023-08-17T08:55:18.861Z,99985.47
2023-08-17T08:57:51.781Z,99972.13
2023-08-17T09:00:19.957Z,99979.09
2023-08-17T09:02:47.265Z,99983.50
2023-08-17T09:05:15.246Z,99975.75
2023-08-17T09:07:43.490Z,99976.63
2023-08-17T09:10:11.383Z,99986.03
2023-08-17T09:12:40.380Z,99962.31
2023-08-17T09:15:08.806Z,99976.44
2023-08-17T09:17:38.471Z,99975.66
2023-08-17T09:20:06.219Z,99970.66
2023-08-17T09:22:45.235Z,99969.44
2023-08-17T09:25:12.558Z,99959.81
2023-08-17T09:27:40.486Z,99967.09
2023-08-17T09:30:10.804Z,99968.50
2023-08-17T09:32:38.284Z,99954.72
2023-08-17T09:35:09.695Z,99955.00
2023-08-17T09:37:36.465Z,99954.47
2023-08-17T09:40:03.718Z,99950.56
2023-08-17T09:42:30.310Z,99955.81
2023-08-17T09:45:02.514Z,99951.66
2023-08-17T09:47:30.866Z,99943.69
2023-08-17T09:49:57.802Z,99950.03
2023-08-17T09:52:26.127Z,99944.31
2023-08-17T09:54:55.862Z,99947.44
2023-08-17T09:57:23.937Z,99940.03
2023-08-17T09:59:53.934Z,99935.94
2023-08-17T10:02:27.667Z,99925.28
2023-08-17T10:04:56.856Z,99931.31
2023-08-17T10:07:33.768Z,99933.06
2023-08-17T10:10:06.354Z,99933.34
2023-08-17T10:12:47.198Z,99932.59
2023-08-17T10:15:22.084Z,99918.03
2023-08-17T10:17:59.915Z,99928.81
2023-08-17T10:20:30.950Z,99926.84
2023-08-17T10:23:16.501Z,99923.56
2023-08-17T10:25:43.568Z,99918.28
2023-08-17T10:28:13.635Z,99916.03
2023-08-17T10:30:42.023Z,99922.59
2023-08-17T10:33:09.719Z,99920.94
2023-08-17T10:35:38.442Z,99920.34
2023-08-17T10:38:10.555Z,99919.53
2023-08-17T10:40:40.820Z,99920.53
2023-08-17T10:43:07.745Z,99919.34
2023-08-17T10:45:39.219Z,99916.78
2023-08-17T10:48:10.153Z,99927.22
2023-08-17T10:50:42.935Z,99922.00
2023-08-17T10:53:14.468Z,99915.31
2023-08-17T10:55:43.132Z,99917.97
2023-08-17T10:58:15.148Z,99913.72
2023-08-17T11:00:45.648Z,99911.66
2023-08-17T11:03:21.191Z,99924.03
2023-08-17T11:05:51.315Z,99920.53
2023-08-17T11:08:42.902Z,99907.75
2023-08-17T11:11:14.563Z,99908.78
2023-08-17T11:13:44.843Z,99914.16
2023-08-17T11:16:16.894Z,99919.06
2023-08-17T11:18:45.514Z,99901.47
2023-08-17T11:21:12.685Z,99919.41
2023-08-17T11:23:39.625Z,99909.44
2023-08-17T11:26:06.295Z,99902.03
2023-08-17T11:28:42.547Z,99912.03
2023-08-17T11:31:12.745Z,99910.91
2023-08-17T11:33:40.612Z,99912.41
2023-08-17T11:36:09.683Z,99909.91
2023-08-17T11:38:41.909Z,99912.41
2023-08-17T11:41:18.583Z,99912.72
2023-08-17T11:43:47.064Z,99911.56
2023-08-17T11:46:13.813Z,99915.16
2023-08-17T11:48:40.919Z,99901.31
2023-08-17T11:51:08.087Z,99902.56
2023-08-17T11:53:38.184Z,99907.41
2023-08-17T11:56:08.896Z,99899.59
2023-08-17T11:58:44.997Z,99888.75
2023-08-17T12:01:13.967Z,99906.16
2023-08-17T12:03:42.236Z,99898.84
2023-08-17T12:06:10.414Z,99900.94
2023-08-17T12:08:37.071Z,99885.91
2023-08-17T12:11:05.245Z,99883.47
2023-08-17T12:13:35.917Z,99875.50
2023-08-17T12:16:03.649Z,99873.22
2023-08-17T12:18:33.885Z,99877.19
2023-08-17T12:21:00.865Z,99872.50
2023-08-17T12:23:27.431Z,99881.03
2023-08-17T12:25:55.752Z,99869.69
2023-08-17T12:28:24.396Z,99888.81
2023-08-17T12:31:03.137Z,99871.91
2023-08-17T12:33:30.254Z,99866.50
2023-08-17T12:35:57.178Z,99858.84
2023-08-17T12:38:25.065Z,99859.31
2023-08-17T12:40:52.080Z,99854.28
2023-08-17T12:43:18.986Z,99852.84
2023-08-17T12:45:45.784Z,99834.09
2023-08-17T12:48:12.699Z,99849.41
2023-08-17T12:50:43.404Z,99839.06
2023-08-17T12:53:10.711Z,99840.59
2023-08-17T12:55:37.681Z,99822.75
2023-08-17T12:58:04.950Z,99830.78
2023-08-17T13:00:31.656Z,99823.41
2023-08-17T13:02:58.699Z,99815.09
2023-08-17T13:05:25.552Z,99816.03
2023-08-17T13:07:52.297Z,99822.13
2023-08-17T13:10:19.318Z,99810.72
2023-08-17T13:12:46.334Z,99813.88
2023-08-17T13:15:12.935Z,99811.88
2023-08-17T13:17:39.890Z,99809.47
2023-08-17T13:20:07.526Z,99807.06
2023-08-17T13:22:34.167Z,99813.78
2023-08-17T13:25:01.193Z,99816.84
2023-08-17T13:27:29.259Z,99814.53
2023-08-17T13:29:56.134Z,99818.03
2023-08-17T13:32:23.079Z,99806.38
2023-08-17T13:34:49.989Z,99815.03
2023-08-17T13:37:16.928Z,99812.66
2023-08-17T13:39:44.345Z,99823.13
2023-08-17T13:42:11.148Z,99816.00
2023-08-17T13:44:38.070Z,99813.34
2023-08-17T13:47:05.202Z,99818.28
2023-08-17T13:49:31.738Z,99815.63
2023-08-17T13:51:58.285Z,99811.81
2023-08-17T13:54:25.774Z,99812.91
2023-08-17T13:56:52.837Z,99811.31
2023-08-17T13:59:19.404Z,99801.44
2023-08-17T14:01:46.120Z,99807.88
2023-08-17T14:04:13.771Z,99804.00
2023-08-17T14:06:41.538Z,99810.44
2023-08-17T14:09:08.494Z,99804.69
2023-08-17T14:11:35.442Z,99809.94
2023-08-17T14:14:02.499Z,99808.22
2023-08-17T14:16:29.447Z,99830.63
2023-08-17T14:18:56.094Z,99817.63
2023-08-17T14:21:23.152Z,99821.72
2023-08-17T14:23:50.152Z,99813.94
2023-08-17T14:26:17.083Z,99809.00
2023-08-17T14:28:45.157Z,99804.56
2023-08-17T14:31:17.127Z,99803.19
2023-08-17T14:33:45.036Z,99795.53
2023-08-17T14:36:11.692Z,99804.91
2023-08-17T14:38:38.286Z,99805.44
2023-08-17T14:41:05.861Z,99804.00
2023-08-17T14:43:32.550Z,99805.13
2023-08-17T14:45:59.579Z,99799.81
2023-08-17T14:48:27.083Z,99795.66
2023-08-17T14:50:53.905Z,99800.38
2023-08-17T14:53:20.826Z,99790.41
2023-08-17T14:55:49.990Z,99796.50
2023-08-17T14:58:17.568Z,99794.88
2023-08-17T15:00:44.199Z,99784.38
2023-08-17T15:03:11.194Z,99782.22
2023-08-17T15:05:38.645Z,99781.38
2023-08-17T15:08:05.606Z,99770.66
2023-08-17T15:10:34.150Z,99774.56
2023-08-17T15:13:00.993Z,99781.22
2023-08-17T15:15:27.604Z,99773.47
2023-08-17T15:17:54.255Z,99764.94
2023-08-17T15:20:21.173Z,99782.38
2023-08-17T15:22:48.098Z,99769.13
2023-08-17T15:25:15.029Z,99784.63
2023-08-17T15:27:42.040Z,99780.75
2023-08-17T15:30:09.526Z,99773.06
2023-08-17T15:32:36.474Z,99771.94
2023-08-17T15:35:04.298Z,99775.53
2023-08-17T15:37:31.395Z,99776.69
2023-08-17T15:39:58.249Z,99776.13
2023-08-17T15:42:25.395Z,99774.47
2023-08-17T15:44:53.261Z,99775.38
2023-08-17T15:47:20.211Z,99746.53
2023-08-17T15:49:47.428Z,99772.13
2023-08-17T15:52:15.690Z,99780.41
2023-08-17T15:54:42.537Z,99763.56
2023-08-17T15:57:10.621Z,99756.66
2023-08-17T15:59:40.100Z,99778.44
2023-08-17T16:02:07.370Z,99765.44
2023-08-17T16:04:35.091Z,99779.78
2023-08-17T16:07:01.960Z,99775.91
2023-08-17T16:09:31.319Z,99773.69
2023-08-17T16:11:58.850Z,99788.84
2023-08-17T16:14:25.767Z,99785.81
2023-08-17T16:16:56.500Z,99779.75
2023-08-17T16:19:23.768Z,99780.06
2023-08-17T16:21:50.675Z,99755.19
2023-08-17T16:24:17.302Z,99759.56
2023-08-17T16:26:43.857Z,99764.81
2023-08-17T16:29:10.441Z,99758.75
2023-08-17T16:31:37.412Z,99758.78
2023-08-17T16:34:04.133Z,99773.16
2023-08-17T16:36:36.319Z,99775.38
2023-08-17T16:39:04.401Z,99780.91
2023-08-17T16:41:31.287Z,99764.66
2023-08-17T16:43:57.946Z,99782.28
2023-08-17T16:46:25.060Z,99774.03
2023-08-17T16:48:51.662Z,99768.00
2023-08-17T16:51:18.573Z,99777.69
2023-08-17T16:53:51.060Z,99771.34
2023-08-17T16:56:18.243Z,99775.75
2023-08-17T16:58:44.804Z,99771.63
2023-08-17T17:01:14.967Z,99766.69
2023-08-17T17:03:42.989Z,99762.84
2023-08-17T17:06:10.062Z,99772.22
2023-08-17T17:08:37.113Z,99776.09
2023-08-17T17:11:04.019Z,99781.63
2023-08-17T17:13:30.907Z,99783.56
2023-08-17T17:15:57.920Z,99787.16
2023-08-17T17:18:24.618Z,99775.56
2023-08-17T17:20:51.805Z,99776.97
2023-08-17T17:23:18.329Z,99788.56
2023-08-17T17:25:45.024Z,99784.44
2023-08-17T17:28:11.988Z,99790.50
2023-08-17T17:30:39.163Z,99795.22
2023-08-17T17:33:05.819Z,99798.00
2023-08-17T17:35:32.792Z,99785.34
2023-08-17T17:38:02.051Z,99800.22
2023-08-17T17:40:28.853Z,99803.28
2023-08-17T17:42:55.854Z,99800.50
2023-08-17T17:45:22.872Z,99798.56
2023-08-17T17:47:49.652Z,99795.25
2023-08-17T17:50:16.554Z,99797.47
2023-08-17T17:52:45.527Z,99799.94
2023-08-17T17:55:13.448Z,99794.97
2023-08-17T17:57:40.038Z,99793.03
2023-08-17T18:00:07.633Z,99804.34
2023-08-17T18:02:34.816Z,99786.06
2023-08-17T18:05:05.706Z,99797.09
2023-08-17T18:07:32.613Z,99773.91
2023-08-17T18:09:59.498Z,99798.44
2023-08-17T18:12:28.947Z,99801.16
2023-08-17T18:14:56.781Z,99810.78
2023-08-17T18:17:23.336Z,99805.81
2023-08-17T18:19:50.260Z,99811.28
2023-08-17T18:22:17.006Z,99815.66
2023-08-17T18:24:44.007Z,99813.09
2023-08-17T18:27:10.686Z,99819.94
2023-08-17T18:29:37.550Z,99811.59
2023-08-17T18:32:05.043Z,99809.03
2023-08-17T18:34:31.683Z,99829.97
2023-08-17T18:36:58.536Z,99827.16
2023-08-17T18:39:25.389Z,99824.81
2023-08-17T18:41:52.133Z,99823.91
2023-08-17T18:44:19.058Z,99834.81
2023-08-17T18:46:45.713Z,99840.53
2023-08-17T18:49:12.468Z,99846.59
2023-08-17T18:51:39.328Z,99845.44
2023-08-17T18:54:06.438Z,99842.63
2023-08-17T18:56:33.313Z,99836.81
2023-08-17T18:59:00.112Z,99835.91
2023-08-17T19:01:26.854Z,99850.19
2023-08-17T19:03:53.922Z,99836.28
2023-08-17T19:06:20.543Z,99857.50
2023-08-17T19:08:47.158Z,99844.22
2023-08-17T19:11:14.006Z,99858.78
2023-08-17T19:13:40.925Z,99857.97
2023-08-17T19:16:07.847Z,99846.34
2023-08-17T19:18:34.972Z,99848.25
2023-08-17T19:21:01.541Z,99853.69
2023-08-17T19:23:28.134Z,99847.81
2023-08-17T19:25:55.028Z,99845.56
2023-08-17T19:28:21.953Z,99852.47
2023-08-17T19:30:48.685Z,99831.16
2023-08-17T19:33:15.610Z,99844.88
2023-08-17T19:35:42.375Z,99825.81
2023-08-17T19:38:10.036Z,99819.78
2023-08-17T19:40:36.841Z,99851.34
2023-08-17T19:43:04.252Z,99846.28
2023-08-17T19:45:31.012Z,99845.91
2023-08-17T19:47:57.965Z,99844.97
2023-08-17T19:50:24.658Z,99849.56
2023-08-17T19:52:51.370Z,99842.09
2023-08-17T19:55:18.113Z,99843.44
2023-08-17T19:57:44.793Z,99839.78
2023-08-17T20:00:12.748Z,99843.06
2023-08-17T20:02:40.228Z,99850.69
2023-08-17T20:05:07.491Z,99851.69
2023-08-17T20:07:34.974Z,99847.28
2023-08-17T20:10:02.495Z,99851.13
2023-08-17T20:12:32.081Z,99851.63
2023-08-17T20:14:58.776Z,99855.09
2023-08-17T20:17:25.404Z,99854.78
2023-08-17T20:19:51.946Z,99853.66
2023-08-17T20:22:18.429Z,99843.69
2023-08-17T20:24:44.898Z,99856.03
2023-08-17T20:27:12.343Z,99856.28
2023-08-17T20:29:38.974Z,99848.50
2023-08-17T20:32:05.559Z,99854.81
2023-08-17T20:34:32.217Z,99847.22
2023-08-17T20:36:58.930Z,99858.19
2023-08-17T20:39:25.407Z,99858.69
2023-08-17T20:41:54.366Z,99861.44
2023-08-17T20:44:21.838Z,99860.00
2023-08-17T20:46:49.199Z,99858.09
2023-08-17T20:49:17.326Z,99858.59
2023-08-17T20:51:45.663Z,99852.09
2023-08-17T20:54:12.344Z,99859.56
2023-08-17T20:56:39.510Z,99854.84
2023-08-17T20:59:06.186Z,99854.75
2023-08-17T21:01:32.939Z,99855.59
2023-08-17T21:03:59.716Z,99863.22
2023-08-17T21:06:26.561Z,99865.66
2023-08-17T21:08:53.211Z,99861.94
2023-08-17T21:11:20.341Z,99852.91
2023-08-17T21:13:46.963Z,99863.06
2023-08-17T21:16:14.018Z,99857.59
2023-08-17T21:18:40.982Z,99859.72
2023-08-17T21:21:07.941Z,99864.69
2023-08-17T21:23:35.592Z,99865.81
2023-08-17T21:26:02.744Z,99871.00
2023-08-17T21:28:29.787Z,99879.22
2023-08-17T21:31:04.098Z,99879.59
2023-08-17T21:33:31.008Z,99869.69
2023-08-17T21:35:59.128Z,99860.31
2023-08-17T21:38:26.455Z,99865.81
2023-08-17T21:41:00.200Z,99872.19
2023-08-17T21:43:30.893Z,99877.84
2023-08-17T21:45:58.652Z,99869.03
2023-08-17T21:48:25.869Z,99872.69
2023-08-17T21:50:53.035Z,99872.91
2023-08-17T21:53:21.558Z,99878.75
2023-08-17T21:55:49.762Z,99877.31
2023-08-17T21:58:16.517Z,99865.66
2023-08-17T22:00:44.238Z,99875.50
2023-08-17T22:03:15.577Z,99869.53
2023-08-17T22:05:48.252Z,99867.63
2023-08-17T22:08:15.986Z,99853.41
2023-08-17T22:10:43.170Z,99869.47
2023-08-17T22:13:10.272Z,99866.13
2023-08-17T22:15:36.987Z,99869.94
2023-08-17T22:18:03.946Z,99859.38
2023-08-17T22:20:30.892Z,99866.28
2023-08-17T22:22:57.601Z,99868.78
2023-08-17T22:25:24.185Z,99870.44
2023-08-17T22:27:50.669Z,99868.78
2023-08-17T22:30:17.452Z,99862.09
2023-08-17T22:32:44.204Z,99869.50
2023-08-17T22:35:11.785Z,99861.53
2023-08-17T22:37:39.245Z,99869.50
2023-08-17T22:40:08.102Z,99861.53
2023-08-17T22:42:35.253Z,99869.75
2023-08-17T22:45:02.060Z,99864.75
2023-08-17T22:47:29.540Z,99867.19
2023-08-17T22:49:56.575Z,99867.09
2023-08-17T22:52:23.256Z,99844.84
2023-08-17T22:54:50.300Z,99856.53
2023-08-17T22:57:17.637Z,99863.78
2023-08-17T22:59:44.466Z,99863.66
2023-08-17T23:02:11.106Z,99869.03
2023-08-17T23:04:37.743Z,99855.16
2023-08-17T23:07:05.523Z,99866.34
2023-08-17T23:09:33.240Z,99859.34
2023-08-17T23:12:00.100Z,99866.72
2023-08-17T23:14:26.677Z,99874.81
2023-08-17T23:16:53.526Z,99858.22
2023-08-17T23:19:20.186Z,99854.63
2023-08-17T23:21:46.860Z,99852.72
2023-08-17T23:24:13.678Z,99863.06
2023-08-17T23:26:40.634Z,99866.06
2023-08-17T23:29:09.193Z,99861.06
2023-08-17T23:31:35.817Z,99868.44
2023-08-17T23:34:02.556Z,99864.88
2023-08-17T23:36:29.508Z,99858.81
2023-08-17T23:38:56.384Z,99853.22
2023-08-17T23:41:23.328Z,99862.75
2023-08-17T23:43:50.232Z,99855.88
2023-08-17T23:46:17.116Z,99857.75
2023-08-17T23:48:44.022Z,99857.63
2023-08-17T23:51:10.813Z,99857.63
2023-08-17T23:53:37.358Z,99860.22
2023-08-17T23:56:04.305Z,99873.25
2023-08-17T23:58:30.877Z,99865.47
